Saint Elmo, Alabama
Current Conditions -  °F | °C
As of 4:56 PM on Saturday 25 Oct 2014 (Local Time) from KMOB Reporting Station
Clear Clear  
Wind Chill: 78°   Ceiling: Unl
Heat Index: 79°   Visibility: 10mi
Dew Point: 55°   Wind: 8mph
Humidity: 45%   Direction: 350°N
Pressure: 30.05"   Gusts: NA
Location:  30.5°N, 88.25°W
Report Text: KMOB 252156Z 35007KT 10SM CLR 26/13 A3005 RMK AO2 SLP174 T02560128
Loading
Personal Weather Stations






























Interactive Weather Map
Tropical Storm Tracking
New forecast layout! Learn more

10-Day Weather Forecast

Advertisements
Track Severe Weather on mobile